Share

King Salmon, AK (99549)

Port Heiden (PAPH) Elev 95 ft | 56.96 °N, 158.63 °W | Change Station

Current weather conditions updated 12 minutes ago

Overcast
Overcast
41 °F
Feels Like 36 °F
N
8
Wind Variable Wind from East
Sunrise 7:18 AM
Sunset 9:50 PM
Moon Waning Gibbous

Tomorrow is forecast to be Cooler than today. Rain mixed with snow.

Pressure 29.32 in
Visibility 10.0 miles
Clouds Scattered Clouds 3000 ft
Mostly Cloudy 4300 ft
Overcast 11000 ft
Windchill 36 °F
Dew Point 27 °F
Humidity 57%
Rainfall 0.00 in
Snow Depth Not available.
UV 1 out of 16
Pollen Not available.
Air Quality Not available.
Flu Activity Sporadic
METAR PAPH 190156Z AUTO 10007KT 10SM SCT030 BKN043 OVC110 05/M03 A2932 RMK AO1

More Conditions Fewer Conditions

Pressure 29.32 in
Visibility 10.0 miles
Clouds Scattered Clouds 3000 ft
Mostly Cloudy 4300 ft
Overcast 11000 ft
Windchill 36 °F
Dew Point 27 °F
Humidity 57%
Rainfall 0.00 in
Snow Depth Not available.
UV 1 out of 16
Pollen Not available.
Air Quality Not available.
Flu Activity Sporadic
METAR PAPH 190156Z AUTO 10007KT 10SM SCT030 BKN043 OVC110 05/M03 A2932 RMK AO1

More Conditions Fewer Conditions

10-Day Weather Forecast

Almanac

Astronomy

Apr. 18, 2014 Rise Set
Actual Time 7:18 AM AKDT 9:50 PM AKDT
Civil Twilight 6:35 AM AKDT 10:33 PM AKDT
Nautical Twilight 5:40 AM AKDT 11:29 PM AKDT
Astronomical Twilight 4:30 AM AKDT 12:41 AM AKDT
Moon 1:13 AM AKDT (4/18) 9:22 AM AKDT (4/18)
Length of Visible Light 15h 57m
Length of Day
14h 32m
Tomorrow will be 4m 43s longer.
Waning Gibbous, 84% of the Moon is Illuminated
Today
Waning Gibbous
Apr 22
Last Quarter
Apr 29
New
May 6
First Quarter
May 14
Full

Today's Extremes

State Highs State Lows

Community

  • Sunset Silhouettes
    Sunset Silhouettes
  • Cloudy spring view
    Cloudy spring view
  • Old barn
    Old barn
  • What's for Lunch?
    What's for Lunch?
  • SUNRISE THROUGH THE TREES.
    SUNRISE THROUGH THE TREES.

WunderPhotos

Upload Photos

1,702,576 photos uploaded!

WunderBlogs® & News

Nearby

Snow Depth

Station Depth Elevation
Port Graham 8 in 300 ft
Mcneil Canyon 9 in 1320 ft
MF Bradley River 22 in 2300 ft
Nuka Glacier 44 in 1250 ft
Cooper Lake 21 in 1200 ft

Coastal Water Temperatures

Place Temperature
No Stations Reporting

Earthquake Activity

City Distance Mag. Time & Date
No recent earthquake activity has been reported nearby.
Minimum magnitude displayed is 2.5.

Nearby Weather Stations

There are no personal weather stations in this area.

What do you think?

We're not finished. Please let us know what you like, what you don't like, and what you are still missing.